Time;durP1;ratioP1;P1;durP2;ratioP2;P2;SDS_P1;SDS_P2;PMS_P1;PMS_P2;Temp;Humidity;BMP_temperature;BMP_pressure;BME280_temperature;BME280_humidity;BME280_pressure;Samples;Min_cycle;Max_cycle;Signal;HPM_P1;HPM_P2
2022/09/23 00:01:19;;;;;;;14.07;3.30;;;20.00;97.30;;;;;;5033386;28;20056;-69
2022/09/23 00:03:48;;;;;;;13.05;4.35;;;20.00;96.90;;;;;;5019375;28;20034;-69
2022/09/23 00:06:18;;;;;;;11.70;3.67;;;20.00;96.60;;;;;;5034648;28;20025;-69
2022/09/23 00:08:48;;;;;;;9.27;4.07;;;20.10;96.40;;;;;;5037576;28;20025;-69
2022/09/23 00:11:27;;;;;;;11.10;3.70;;;20.10;97.30;;;;;;5031931;28;20029;-69
2022/09/23 00:13:57;;;;;;;11.20;3.97;;;20.30;97.40;;;;;;5035330;28;20029;-69
2022/09/23 00:16:35;;;;;;;10.27;4.57;;;20.30;97.00;;;;;;5031027;28;20025;-69
2022/09/23 00:19:03;;;;;;;11.38;3.70;;;20.30;96.00;;;;;;5036188;28;20482;-69
2022/09/23 00:21:31;;;;;;;9.93;4.43;;;20.20;96.50;;;;;;5028712;28;20025;-69
2022/09/23 00:23:58;;;;;;;9.95;4.45;;;20.00;96.90;;;;;;5023518;28;20042;-69
2022/09/23 00:26:26;;;;;;;15.98;4.90;;;19.90;98.10;;;;;;5027454;28;20143;-69
2022/09/23 00:28:53;;;;;;;12.30;4.57;;;19.70;98.40;;;;;;5028938;28;20026;-69
2022/09/23 00:31:24;;;;;;;11.63;5.35;;;19.50;98.20;;;;;;5031125;28;20113;-69
2022/09/23 00:33:56;;;;;;;9.82;4.97;;;19.40;99.60;;;;;;5024928;28;20022;-69
2022/09/23 00:36:25;;;;;;;15.15;4.63;;;19.40;99.90;;;;;;5016129;28;20402;-70
2022/09/23 00:38:53;;;;;;;12.55;4.47;;;19.40;99.90;;;;;;5029590;28;20025;-70
2022/09/23 00:41:21;;;;;;;7.60;4.35;;;19.30;99.90;;;;;;5031894;28;20032;-69
2022/09/23 00:43:49;;;;;;;11.57;4.55;;;19.40;99.90;;;;;;5028942;28;20026;-70
2022/09/23 00:46:28;;;;;;;11.27;4.57;;;19.40;99.90;;;;;;5034394;28;20017;-70
2022/09/23 00:49:06;;;;;;;13.18;4.70;;;19.30;99.90;;;;;;5034115;28;20025;-69
2022/09/23 00:51:39;;;;;;;17.65;4.97;;;19.40;99.70;;;;;;5040734;28;20060;-70
2022/09/23 00:54:06;;;;;;;12.05;3.60;;;19.40;99.50;;;;;;5029686;28;20109;-70
2022/09/23 00:56:35;;;;;;;8.15;3.47;;;19.60;99.90;;;;;;5032369;28;20469;-70
2022/09/23 00:59:04;;;;;;;11.43;4.45;;;19.70;99.30;;;;;;5028366;28;20079;-70
2022/09/23 01:01:31;;;;;;;9.45;3.47;;;19.70;98.60;;;;;;5030692;28;20033;-70
2022/09/23 01:03:59;;;;;;;10.80;4.50;;;19.80;98.50;;;;;;5027323;28;20056;-69
2022/09/23 01:06:28;;;;;;;11.90;3.35;;;20.00;98.50;;;;;;5031573;28;20478;-70
2022/09/23 01:08:56;;;;;;;17.30;4.32;;;20.10;97.20;;;;;;5027894;28;20041;-69
2022/09/23 01:11:36;;;;;;;10.50;4.00;;;20.20;96.40;;;;;;5036553;28;20056;-69
2022/09/23 01:14:21;;;;;;;8.85;3.03;;;20.30;96.70;;;;;;5031087;28;20021;-69
2022/09/23 01:16:57;;;;;;;10.00;2.85;;;20.60;96.80;;;;;;5025569;28;20041;-69
2022/09/23 01:19:36;;;;;;;11.70;4.60;;;21.00;96.20;;;;;;5032497;28;20033;-70
2022/09/23 01:22:07;;;;;;;9.93;2.78;;;21.40;95.00;;;;;;5037899;28;20111;-70
2022/09/23 01:24:52;;;;;;;9.45;3.15;;;21.80;94.90;;;;;;5040373;28;20064;-70
2022/09/23 01:27:51;;;;;;;11.68;2.65;;;21.90;93.20;;;;;;5041943;28;20029;-70
2022/09/23 01:30:46;;;;;;;10.07;2.55;;;22.20;93.10;;;;;;5029414;28;20052;-70
2022/09/23 01:33:38;;;;;;;10.13;2.78;;;22.20;93.90;;;;;;5044472;28;20136;-69
2022/09/23 01:36:21;;;;;;;10.48;2.58;;;22.20;93.10;;;;;;5026921;28;20053;-69
2022/09/23 01:39:25;;;;;;;12.90;3.17;;;22.10;92.80;;;;;;5026264;28;20073;-70
2022/09/23 01:42:16;;;;;;;10.68;2.60;;;21.70;93.30;;;;;;5025559;28;20112;-63
2022/09/23 01:44:50;;;;;;;13.20;3.42;;;21.20;93.20;;;;;;5033908;28;20033;-62
2022/09/23 01:48:22;;;;;;;13.60;3.83;;;20.20;96.60;;;;;;5030665;28;20017;-64
2022/09/23 01:51:16;;;;;;;13.68;3.13;;;19.50;98.60;;;;;;4974252;28;20034;-60
2022/09/23 01:54:04;;;;;;;14.48;4.22;;;19.00;99.90;;;;;;4973603;28;20198;-61
2022/09/23 01:57:00;;;;;;;13.10;2.97;;;18.60;99.90;;;;;;5021580;28;20067;-62
2022/09/23 01:59:51;;;;;;;16.23;2.65;;;18.50;99.90;;;;;;5028835;28;20048;-61
2022/09/23 02:02:30;;;;;;;21.27;3.20;;;18.40;99.90;;;;;;5034257;28;20018;-62
2022/09/23 02:05:34;;;;;;;11.57;2.65;;;18.40;99.90;;;;;;5040914;28;20116;-61
2022/09/23 02:08:09;;;;;;;11.43;2.08;;;18.40;99.90;;;;;;5021422;28;20030;-61
2022/09/23 02:11:00;;;;;;;10.32;3.00;;;18.50;99.90;;;;;;5036418;28;20025;-62
2022/09/23 02:14:05;;;;;;;18.42;4.50;;;18.60;99.90;;;;;;5038267;28;20025;-61
2022/09/23 02:16:54;;;;;;;11.82;2.78;;;18.80;99.90;;;;;;5019392;28;20052;-61
2022/09/23 02:19:21;;;;;;;8.57;1.85;;;18.80;99.90;;;;;;5021170;28;20124;-61
2022/09/23 02:22:03;;;;;;;9.32;2.47;;;18.60;99.90;;;;;;5027240;28;20022;-61
2022/09/23 02:24:36;;;;;;;10.98;2.13;;;18.50;99.90;;;;;;5025155;28;20091;-62
2022/09/23 02:27:18;;;;;;;11.80;2.85;;;18.50;99.90;;;;;;5043818;28;20032;-62
2022/09/23 02:30:12;;;;;;;15.07;3.10;;;18.80;99.90;;;;;;5029778;28;20029;-63
2022/09/23 02:32:54;;;;;;;11.93;2.00;;;19.00;99.90;;;;;;5025928;28;20056;-62
2022/09/23 02:35:39;;;;;;;10.30;2.47;;;19.20;99.90;;;;;;5027947;28;20502;-63
2022/09/23 02:38:24;;;;;;;9.88;2.42;;;19.40;99.90;;;;;;5023469;28;20509;-62
2022/09/23 02:41:32;;;;;;;7.75;2.35;;;19.30;99.90;;;;;;5027499;28;20030;-62
2022/09/23 02:44:05;;;;;;;11.45;2.40;;;19.00;99.70;;;;;;5024703;28;20090;-62
2022/09/23 02:46:33;;;;;;;13.00;2.08;;;18.90;99.90;;;;;;5023559;28;20116;-63
2022/09/23 02:49:30;;;;;;;9.27;1.92;;;18.80;99.90;;;;;;5028333;28;20399;-62
2022/09/23 02:52:03;;;;;;;12.15;2.10;;;18.90;99.90;;;;;;5028490;28;20029;-62
2022/09/23 02:54:34;;;;;;;13.48;2.65;;;19.00;99.90;;;;;;5028079;28;20026;-62
2022/09/23 02:57:07;;;;;;;11.68;2.90;;;19.30;99.90;;;;;;5026176;28;20041;-62
2022/09/23 02:59:36;;;;;;;10.93;2.63;;;19.70;99.00;;;;;;5028420;28;20491;-62
2022/09/23 03:02:38;;;;;;;8.68;2.50;;;19.80;99.40;;;;;;5023150;28;20026;-62
2022/09/23 03:05:38;;;;;;;7.78;2.50;;;20.10;98.20;;;;;;5028289;28;20045;-61
2022/09/23 03:08:24;;;;;;;8.98;2.72;;;20.40;97.50;;;;;;4979493;28;20034;-66
2022/09/23 03:11:10;;;;;;;7.55;2.38;;;20.70;97.90;;;;;;5034113;28;20013;-67
2022/09/23 03:14:07;;;;;;;10.40;2.55;;;20.80;96.40;;;;;;5027519;28;20064;-66
2022/09/23 03:16:49;;;;;;;8.23;2.33;;;20.70;96.80;;;;;;5038774;28;20036;-66
2022/09/23 03:19:23;;;;;;;10.63;2.90;;;20.40;97.00;;;;;;5031990;28;20060;-67
2022/09/23 03:21:52;;;;;;;;;;;20.20;97.60;;;;;;5025121;28;20018;-67
2022/09/23 03:24:22;;;;;;;9.95;3.00;;;20.00;98.40;;;;;;5026697;28;19913;-67
2022/09/23 03:26:52;;;;;;;10.35;3.67;;;19.90;98.10;;;;;;5025976;28;20075;-67
2022/09/23 03:29:22;;;;;;;13.95;3.25;;;19.90;98.30;;;;;;5026697;28;20774;-68
2022/09/23 03:31:49;;;;;;;9.52;3.42;;;19.90;98.00;;;;;;5018859;28;20017;-69
2022/09/23 03:34:26;;;;;;;8.45;2.80;;;20.00;97.60;;;;;;5028505;28;20029;-68
2022/09/23 03:37:05;;;;;;;9.85;3.42;;;20.20;97.50;;;;;;5020144;28;20107;-69
2022/09/23 03:39:40;;;;;;;13.88;3.72;;;20.00;96.90;;;;;;5031696;28;20044;-67
2022/09/23 03:42:21;;;;;;;15.48;4.15;;;19.90;97.60;;;;;;5027950;28;20021;-68
2022/09/23 03:44:55;;;;;;;14.55;3.35;;;19.80;97.20;;;;;;5027454;28;20087;-62
2022/09/23 03:47:24;;;;;;;;;;;19.30;99.80;;;;;;5021641;28;20486;-63
2022/09/23 03:49:51;;;;;;;11.07;3.92;;;18.80;99.90;;;;;;5023311;28;19913;-62
2022/09/23 03:52:21;;;;;;;13.35;3.60;;;18.50;99.90;;;;;;5028436;28;20052;-61
2022/09/23 03:54:50;;;;;;;15.70;3.67;;;18.30;99.90;;;;;;5026745;28;20024;-65
2022/09/23 03:57:20;;;;;;;16.55;5.15;;;18.10;99.90;;;;;;5027203;28;20045;-66
2022/09/23 03:59:52;;;;;;;10.23;4.25;;;17.90;99.90;;;;;;5015737;28;20079;-61
2022/09/23 04:02:20;;;;;;;19.23;4.10;;;17.80;99.90;;;;;;5015708;28;20029;-63
2022/09/23 04:04:48;;;;;;;12.98;4.38;;;17.60;99.90;;;;;;5026125;28;20469;-61
2022/09/23 04:07:15;;;;;;;13.60;3.95;;;17.60;99.90;;;;;;5028860;28;20063;-61
2022/09/23 04:09:43;;;;;;;10.55;3.83;;;17.50;99.90;;;;;;5024477;28;20026;-61
2022/09/23 04:12:16;;;;;;;12.30;3.28;;;17.40;99.90;;;;;;5027679;28;20490;-61
2022/09/23 04:14:44;;;;;;;15.05;3.40;;;17.40;99.90;;;;;;5028178;28;20475;-61
2022/09/23 04:17:12;;;;;;;13.18;2.50;;;17.30;99.90;;;;;;5027001;28;20618;-59
2022/09/23 04:19:40;;;;;;;7.55;2.05;;;17.30;99.90;;;;;;5026508;28;20442;-61
2022/09/23 04:22:07;;;;;;;15.60;3.30;;;17.20;99.90;;;;;;5022232;28;20025;-61
2022/09/23 04:24:35;;;;;;;5.57;2.38;;;17.20;99.90;;;;;;5019671;28;20095;-61
2022/09/23 04:27:02;;;;;;;11.20;2.60;;;17.30;99.90;;;;;;5029697;28;20018;-60
2022/09/23 04:29:29;;;;;;;13.05;2.53;;;17.30;99.90;;;;;;5022324;28;20115;-61
2022/09/23 04:31:56;;;;;;;9.98;2.72;;;17.40;99.90;;;;;;5035401;28;20486;-61
2022/09/23 04:34:24;;;;;;;10.20;2.55;;;17.50;99.90;;;;;;5044173;28;20092;-60
2022/09/23 04:36:51;;;;;;;13.63;3.53;;;17.50;99.90;;;;;;5034775;28;20120;-60
2022/09/23 04:39:18;;;;;;;9.95;3.13;;;17.60;99.90;;;;;;5027115;28;20504;-60
2022/09/23 04:41:46;;;;;;;9.27;2.80;;;17.70;99.90;;;;;;5029995;28;20470;-60
2022/09/23 04:44:14;;;;;;;12.57;2.95;;;17.80;99.90;;;;;;5025661;28;20049;-61
2022/09/23 04:46:46;;;;;;;11.15;2.30;;;17.90;99.90;;;;;;5028000;28;20017;-61
2022/09/23 04:49:13;;;;;;;8.40;1.92;;;18.00;99.90;;;;;;5028269;28;20048;-61
2022/09/23 04:51:44;;;;;;;11.05;2.50;;;18.20;99.90;;;;;;5025078;28;20590;-61
2022/09/23 04:54:13;;;;;;;11.68;2.33;;;18.30;99.90;;;;;;5031114;28;20039;-61
2022/09/23 04:56:41;;;;;;;12.93;2.13;;;18.60;99.90;;;;;;5032845;28;20533;-61
2022/09/23 04:59:08;;;;;;;7.15;1.70;;;18.70;99.90;;;;;;5027410;28;21769;-61
2022/09/23 05:01:37;;;;;;;9.73;1.88;;;18.90;99.90;;;;;;5028984;28;20034;-61
2022/09/23 05:04:06;;;;;;;10.32;3.00;;;19.10;99.90;;;;;;5039172;28;20510;-61
2022/09/23 05:06:35;;;;;;;9.18;2.92;;;19.30;99.90;;;;;;5030867;28;20026;-61
2022/09/23 05:09:04;;;;;;;9.63;2.80;;;19.30;99.50;;;;;;5028371;28;20032;-61
2022/09/23 05:11:31;;;;;;;12.73;2.83;;;19.30;99.80;;;;;;5025757;28;20065;-62
2022/09/23 05:13:59;;;;;;;9.23;3.15;;;19.20;99.60;;;;;;5037669;28;20441;-61
2022/09/23 05:16:26;;;;;;;11.10;3.10;;;19.10;99.40;;;;;;5028380;28;20053;-61
2022/09/23 05:18:54;;;;;;;13.85;4.10;;;19.00;99.00;;;;;;5034768;28;20424;-61
2022/09/23 05:21:27;;;;;;;16.85;2.83;;;19.00;99.70;;;;;;5027234;28;20030;-61
2022/09/23 05:23:57;;;;;;;9.95;3.45;;;18.90;99.10;;;;;;5032405;28;20466;-61
2022/09/23 05:26:27;;;;;;;9.18;2.80;;;18.90;99.80;;;;;;5027773;28;20037;-62
2022/09/23 05:28:54;;;;;;;11.13;2.50;;;19.00;99.70;;;;;;5033434;28;20096;-62
2022/09/23 05:31:24;;;;;;;12.43;2.50;;;19.10;99.90;;;;;;5032377;28;20033;-62
2022/09/23 05:34:03;;;;;;;16.52;3.40;;;19.20;99.80;;;;;;5033743;28;20092;-62
2022/09/23 05:36:32;;;;;;;10.00;3.28;;;19.30;99.30;;;;;;5030029;28;20490;-62
2022/09/23 05:38:59;;;;;;;10.25;2.72;;;19.40;99.20;;;;;;5036364;28;20116;-62
2022/09/23 05:41:27;;;;;;;9.13;2.60;;;19.50;99.50;;;;;;5028842;28;20025;-62
2022/09/23 05:43:55;;;;;;;7.85;2.28;;;19.50;98.10;;;;;;5038034;28;20124;-62
2022/09/23 05:46:30;;;;;;;12.77;2.85;;;19.40;98.00;;;;;;5031356;28;20126;-63
2022/09/23 05:48:59;;;;;;;15.45;4.18;;;19.40;98.30;;;;;;5028926;28;20032;-62
2022/09/23 05:51:27;;;;;;;14.07;2.80;;;19.40;96.80;;;;;;5031756;28;20021;-62
2022/09/23 05:53:57;;;;;;;9.15;2.60;;;19.30;97.60;;;;;;5027895;28;20446;-63
2022/09/23 05:56:26;;;;;;;7.32;2.33;;;19.40;97.70;;;;;;5034331;28;20037;-61
2022/09/23 05:58:56;;;;;;;8.95;2.75;;;19.30;97.10;;;;;;5030607;28;20021;-61
2022/09/23 06:01:26;;;;;;;10.60;2.50;;;19.30;97.50;;;;;;5030601;28;20045;-62
2022/09/23 06:03:57;;;;;;;10.32;2.75;;;19.30;97.60;;;;;;5033889;28;20038;-61
2022/09/23 06:06:28;;;;;;;10.88;2.55;;;19.30;97.30;;;;;;5029434;28;20493;-63
2022/09/23 06:08:58;;;;;;;7.43;2.47;;;19.30;96.80;;;;;;5036276;28;20024;-62
2022/09/23 06:11:26;;;;;;;7.38;2.65;;;19.30;97.40;;;;;;5036902;28;20026;-63
2022/09/23 06:14:01;;;;;;;10.10;3.05;;;19.40;97.70;;;;;;5031694;28;20557;-62
2022/09/23 06:16:30;;;;;;;7.65;2.92;;;19.40;97.40;;;;;;5020432;28;20368;-61
2022/09/23 06:18:59;;;;;;;12.35;2.15;;;19.40;97.90;;;;;;5025035;28;20033;-61
2022/09/23 06:21:26;;;;;;;14.43;3.00;;;19.40;97.50;;;;;;5025064;28;20398;-62
2022/09/23 06:23:53;;;;;;;7.63;2.88;;;19.30;97.50;;;;;;5027293;28;20768;-62
2022/09/23 06:26:21;;;;;;;8.63;2.38;;;19.30;98.00;;;;;;5041474;28;20037;-62
2022/09/23 06:28:49;;;;;;;11.80;3.72;;;19.30;98.10;;;;;;5028652;28;20551;-62
2022/09/23 06:31:16;;;;;;;7.63;2.88;;;19.20;96.90;;;;;;5025889;28;20037;-62
2022/09/23 06:33:45;;;;;;;8.30;2.88;;;19.10;97.20;;;;;;5029243;28;20026;-62
2022/09/23 06:36:15;;;;;;;15.05;3.55;;;19.10;97.00;;;;;;5025617;28;20052;-61
2022/09/23 06:38:44;;;;;;;10.73;3.30;;;19.10;97.00;;;;;;5020735;28;20503;-62
2022/09/23 06:41:11;;;;;;;6.53;3.08;;;19.00;97.00;;;;;;5029853;28;20394;-61
2022/09/23 06:43:39;;;;;;;13.30;3.22;;;19.00;96.90;;;;;;5029034;28;20037;-62
2022/09/23 06:46:07;;;;;;;9.55;2.63;;;18.90;97.20;;;;;;5022062;28;20037;-62
2022/09/23 06:48:35;;;;;;;17.40;3.45;;;19.00;97.00;;;;;;5018197;28;20034;-62
2022/09/23 06:51:06;;;;;;;11.98;4.00;;;18.90;96.40;;;;;;5022260;28;20033;-62
2022/09/23 06:53:34;;;;;;;12.38;3.42;;;18.90;97.00;;;;;;5021059;28;20511;-62
2022/09/23 06:56:06;;;;;;;9.13;2.60;;;18.80;97.00;;;;;;5027333;28;20364;-62
2022/09/23 06:58:36;;;;;;;7.35;2.20;;;18.80;97.20;;;;;;5025794;28;20037;-62
2022/09/23 07:01:09;;;;;;;13.55;2.83;;;18.70;97.50;;;;;;5016194;28;20030;-61
2022/09/23 07:03:37;;;;;;;15.57;3.35;;;18.60;97.60;;;;;;5036684;28;20028;-61
2022/09/23 07:06:08;;;;;;;15.82;2.72;;;18.60;97.90;;;;;;5029509;28;20036;-62
2022/09/23 07:08:36;;;;;;;21.08;3.00;;;18.50;97.80;;;;;;5022888;28;20033;-63
2022/09/23 07:11:05;;;;;;;18.23;3.38;;;18.50;97.50;;;;;;5017640;28;20034;-63
2022/09/23 07:13:33;;;;;;;14.68;3.00;;;18.40;97.90;;;;;;5030928;28;20028;-63
2022/09/23 07:16:01;;;;;;;18.30;4.35;;;18.40;98.00;;;;;;5031832;28;20033;-64
2022/09/23 07:18:35;;;;;;;20.70;4.38;;;18.40;98.10;;;;;;5030570;28;20030;-64
2022/09/23 07:21:14;;;;;;;14.27;3.08;;;18.40;98.20;;;;;;5022927;28;20386;-64
2022/09/23 07:23:47;;;;;;;15.48;3.60;;;18.30;98.20;;;;;;5030120;28;20115;-63
2022/09/23 07:26:16;;;;;;;18.92;3.00;;;18.30;98.30;;;;;;5030967;28;20025;-63
2022/09/23 07:28:46;;;;;;;19.65;4.70;;;18.20;98.30;;;;;;5030869;28;20160;-63
2022/09/23 07:31:15;;;;;;;11.23;2.95;;;18.10;98.20;;;;;;5018653;28;20025;-64
2022/09/23 07:33:42;;;;;;;14.55;4.50;;;18.10;98.60;;;;;;5028434;28;20029;-63
2022/09/23 07:36:13;;;;;;;21.15;4.13;;;18.10;98.70;;;;;;5029191;28;20053;-63
2022/09/23 07:38:40;;;;;;;18.73;3.17;;;18.00;98.90;;;;;;5030096;28;20025;-61
2022/09/23 07:41:11;;;;;;;18.75;4.90;;;18.00;99.10;;;;;;5030329;28;20029;-62
2022/09/23 07:43:38;;;;;;;12.82;2.95;;;18.00;99.10;;;;;;5029230;28;20106;-64
2022/09/23 07:46:09;;;;;;;17.08;3.60;;;17.90;98.80;;;;;;5028304;28;20048;-63
2022/09/23 07:48:38;;;;;;;15.80;3.05;;;17.90;99.30;;;;;;5028556;28;20033;-63
2022/09/23 07:51:28;;;;;;;12.82;2.67;;;17.90;99.00;;;;;;5031154;28;20029;-64
2022/09/23 07:53:56;;;;;;;16.85;3.20;;;17.80;99.30;;;;;;5018007;28;20044;-63
2022/09/23 07:56:29;;;;;;;18.17;5.07;;;17.80;99.40;;;;;;5011401;28;20022;-63
2022/09/23 07:59:00;;;;;;;24.63;6.68;;;17.70;99.60;;;;;;5030094;28;20025;-63
2022/09/23 08:01:33;;;;;;;12.50;2.97;;;17.70;99.70;;;;;;5030255;28;20052;-64
2022/09/23 08:04:04;;;;;;;17.05;3.10;;;17.70;99.90;;;;;;5030227;28;20537;-64
2022/09/23 08:06:32;;;;;;;17.30;3.10;;;17.60;99.90;;;;;;5030802;28;20672;-63
2022/09/23 08:09:00;;;;;;;16.02;4.20;;;17.50;99.90;;;;;;5030098;28;20025;-67
2022/09/23 08:11:28;;;;;;;16.70;3.33;;;17.50;99.90;;;;;;5029609;28;20053;-64
2022/09/23 08:13:56;;;;;;;15.77;3.22;;;17.50;99.90;;;;;;5030116;28;20563;-60
2022/09/23 08:16:23;;;;;;;10.43;2.65;;;17.50;99.90;;;;;;5029801;28;20025;-61
2022/09/23 08:18:50;;;;;;;13.07;3.50;;;17.50;99.90;;;;;;5030620;28;20378;-62
2022/09/23 08:21:21;;;;;;;16.13;3.45;;;17.50;99.90;;;;;;5029488;28;20091;-60
2022/09/23 08:23:50;;;;;;;32.03;4.13;;;17.50;99.90;;;;;;5028873;28;20029;-59
2022/09/23 08:26:17;;;;;;;20.25;3.97;;;17.50;99.90;;;;;;5030340;28;20033;-59
2022/09/23 08:28:46;;;;;;;19.92;4.03;;;17.50;99.90;;;;;;5029516;28;20071;-60
2022/09/23 08:31:14;;;;;;;14.80;3.13;;;17.50;99.90;;;;;;5030258;28;20083;-59
2022/09/23 08:33:42;;;;;;;17.90;3.95;;;17.50;99.90;;;;;;5029882;28;20052;-59
2022/09/23 08:36:09;;;;;;;18.48;3.33;;;17.40;99.90;;;;;;5021962;28;20896;-58
2022/09/23 08:38:36;;;;;;;16.73;3.72;;;17.40;99.90;;;;;;5028601;28;20025;-58
2022/09/23 08:41:19;;;;;;;18.73;2.95;;;17.40;99.90;;;;;;5027813;28;20072;-59
2022/09/23 08:43:51;;;;;;;15.10;3.42;;;17.50;99.90;;;;;;5026929;28;20017;-63
2022/09/23 08:46:36;;;;;;;17.67;3.47;;;17.50;99.90;;;;;;5026660;28;20030;-61
2022/09/23 08:49:09;;;;;;;14.95;3.25;;;17.50;99.90;;;;;;5025385;28;20695;-61
2022/09/23 08:51:45;;;;;;;12.13;3.78;;;17.40;99.90;;;;;;5027232;28;20028;-62
2022/09/23 08:54:15;;;;;;;12.13;3.60;;;17.50;99.90;;;;;;5025566;28;20034;-62
2022/09/23 08:56:48;;;;;;;18.98;3.70;;;17.40;99.90;;;;;;5027961;28;20108;-62
2022/09/23 08:59:21;;;;;;;16.08;2.65;;;17.40;99.90;;;;;;5030381;28;20103;-62
2022/09/23 09:02:00;;;;;;;16.80;4.85;;;17.40;99.90;;;;;;5033704;28;20030;-62
2022/09/23 09:04:28;;;;;;;18.42;4.05;;;17.40;99.90;;;;;;5031953;28;20513;-63
2022/09/23 09:07:18;;;;;;;13.80;3.28;;;17.40;99.90;;;;;;5031480;28;20025;-63
2022/09/23 09:10:10;;;;;;;14.15;2.97;;;17.30;99.90;;;;;;5033843;28;20018;-64
2022/09/23 09:12:59;;;;;;;15.98;3.55;;;17.30;99.90;;;;;;5032161;28;20490;-65
2022/09/23 09:15:28;;;;;;;21.65;4.65;;;17.30;99.90;;;;;;5033020;28;20025;-62
2022/09/23 09:18:21;;;;;;;21.15;4.97;;;17.20;99.90;;;;;;5033166;28;20022;-61
2022/09/23 09:20:56;;;;;;;21.27;3.67;;;17.20;99.90;;;;;;5033194;28;20092;-63
2022/09/23 09:23:33;;;;;;;17.60;5.38;;;17.20;99.90;;;;;;5027417;28;20038;-61
2022/09/23 09:26:03;;;;;;;23.33;5.72;;;17.20;99.90;;;;;;5030854;28;20390;-62
2022/09/23 09:28:52;;;;;;;17.58;4.00;;;17.20;99.90;;;;;;5025598;28;20025;-62
2022/09/23 09:31:22;;;;;;;16.77;4.70;;;17.20;99.90;;;;;;5029033;28;20033;-62
2022/09/23 09:34:26;;;;;;;26.60;4.53;;;17.20;99.90;;;;;;5029385;28;20021;-62
2022/09/23 09:37:15;;;;;;;21.52;3.92;;;17.20;99.90;;;;;;5028181;28;20412;-62
2022/09/23 09:39:42;;;;;;;11.95;3.85;;;17.20;99.90;;;;;;5030173;28;20040;-63
2022/09/23 09:42:44;;;;;;;19.73;3.60;;;17.20;99.90;;;;;;5030558;28;20021;-64
2022/09/23 09:45:19;;;;;;;16.70;4.03;;;17.20;99.90;;;;;;5012714;28;20049;-62
2022/09/23 09:48:13;;;;;;;15.60;4.22;;;17.20;99.90;;;;;;5026826;28;20025;-66
2022/09/23 09:50:44;;;;;;;18.23;5.10;;;17.20;99.90;;;;;;5010569;28;20034;-63
2022/09/23 09:53:34;;;;;;;22.02;4.78;;;17.20;99.90;;;;;;5028012;28;20560;-63
2022/09/23 09:56:10;;;;;;;14.23;4.93;;;17.20;99.90;;;;;;5027952;28;20037;-62
2022/09/23 09:58:45;;;;;;;17.05;3.75;;;17.20;99.90;;;;;;5029273;28;20104;-63
2022/09/23 10:01:31;;;;;;;18.73;4.72;;;17.10;99.90;;;;;;5028718;28;20117;-62
2022/09/23 10:04:02;;;;;;;23.02;4.35;;;17.10;99.90;;;;;;5029335;28;20049;-63
2022/09/23 10:06:34;;;;;;;18.65;4.45;;;17.20;99.90;;;;;;5029810;28;20347;-62
2022/09/23 10:09:08;;;;;;;18.17;4.00;;;17.20;99.90;;;;;;5029057;28;20021;-62
2022/09/23 10:11:35;;;;;;;19.15;4.13;;;17.10;99.90;;;;;;5028425;28;20454;-62
2022/09/23 10:14:11;;;;;;;19.17;4.68;;;17.20;99.90;;;;;;5028565;28;20335;-61
2022/09/23 10:16:40;;;;;;;24.60;5.35;;;17.20;99.90;;;;;;5026859;28;20104;-62
2022/09/23 10:19:37;;;;;;;22.98;6.55;;;17.20;99.90;;;;;;5029063;28;20056;-61
2022/09/23 10:22:16;;;;;;;15.35;5.10;;;17.20;99.90;;;;;;5013284;28;20049;-61
2022/09/23 10:24:49;;;;;;;18.08;5.00;;;17.10;99.90;;;;;;5030243;28;20043;-62
2022/09/23 10:27:24;;;;;;;29.33;6.75;;;17.10;99.90;;;;;;5029385;28;20025;-61
2022/09/23 10:29:56;;;;;;;13.95;4.80;;;17.10;99.90;;;;;;5029534;28;20049;-61
2022/09/23 10:32:43;;;;;;;18.33;7.07;;;17.10;99.90;;;;;;5029575;28;20076;-62
2022/09/23 10:35:13;;;;;;;18.90;6.18;;;17.10;99.90;;;;;;5023632;28;20028;-62
2022/09/23 10:37:43;;;;;;;20.98;7.53;;;17.00;99.90;;;;;;5029366;28;20061;-62
2022/09/23 10:47:10;;;;;;;23.20;8.48;;;17.00;99.90;;;;;;5025071;28;20060;-62
2022/09/23 10:50:02;;;;;;;33.25;9.82;;;17.00;99.90;;;;;;5026035;28;20029;-61
2022/09/23 10:53:05;;;;;;;21.75;9.45;;;16.90;99.90;;;;;;5023290;28;20064;-63
2022/09/23 10:55:40;;;;;;;29.42;9.32;;;16.90;99.90;;;;;;5028053;28;20033;-62
2022/09/23 10:58:12;;;;;;;;;;;16.90;99.90;;;;;;5030036;28;20107;-62
2022/09/23 11:01:15;;;;;;;30.70;10.20;;;16.90;99.90;;;;;;5028611;28;20467;-62
2022/09/23 11:04:04;;;;;;;35.75;11.88;;;16.90;99.90;;;;;;5027012;28;20033;-62
2022/09/23 11:06:45;;;;;;;28.55;11.45;;;16.90;99.90;;;;;;5028529;28;20136;-62
2022/09/23 11:09:31;;;;;;;30.52;10.23;;;16.80;99.90;;;;;;5024635;28;20034;-62
2022/09/23 11:12:23;;;;;;;25.80;9.70;;;16.80;99.90;;;;;;5028088;28;20104;-62
2022/09/23 11:15:10;;;;;;;29.02;11.30;;;16.80;99.90;;;;;;5028716;28;20017;-62
2022/09/23 11:17:55;;;;;;;33.55;11.07;;;16.80;99.90;;;;;;5017137;28;20049;-62
2022/09/23 11:20:41;;;;;;;24.00;10.82;;;16.80;99.90;;;;;;5019959;28;20033;-62
2022/09/23 11:23:29;;;;;;;27.88;12.02;;;16.70;99.90;;;;;;5022410;28;20034;-61
2022/09/23 11:26:17;;;;;;;27.58;10.18;;;16.70;99.90;;;;;;5028560;28;20048;-61
2022/09/23 11:28:59;;;;;;;26.05;11.10;;;16.70;99.90;;;;;;5026954;28;20036;-62
2022/09/23 11:31:57;;;;;;;30.25;12.13;;;16.70;99.90;;;;;;5027766;28;20036;-61
2022/09/23 11:34:35;;;;;;;28.40;11.55;;;16.70;99.90;;;;;;5000307;28;20061;-62
2022/09/23 11:37:31;;;;;;;36.40;14.10;;;16.70;99.90;;;;;;5028278;28;20045;-62
2022/09/23 11:40:28;;;;;;;29.33;10.52;;;16.70;99.90;;;;;;5013260;28;20783;-62
2022/09/23 11:43:28;;;;;;;22.35;10.98;;;16.70;99.90;;;;;;5022692;28;21551;-62
2022/09/23 11:46:00;;;;;;;31.55;12.27;;;16.70;99.90;;;;;;5027717;28;20670;-62
2022/09/23 11:48:34;;;;;;;30.73;12.45;;;16.80;99.90;;;;;;5021520;28;20036;-62
2022/09/23 11:51:24;;;;;;;34.20;12.23;;;16.80;99.90;;;;;;5027463;28;20513;-62
2022/09/23 11:54:23;;;;;;;33.72;14.02;;;16.80;99.90;;;;;;5026235;28;20057;-62
2022/09/23 11:56:58;;;;;;;24.67;10.82;;;16.80;99.90;;;;;;5015389;28;20108;-62
2022/09/23 11:59:47;;;;;;;28.88;12.70;;;16.80;99.90;;;;;;5027109;28;20029;-62
2022/09/23 12:03:08;;;;;;;29.50;11.35;;;16.80;99.90;;;;;;5027531;28;20025;-62
2022/09/23 12:05:46;;;;;;;23.77;11.00;;;16.80;99.90;;;;;;5020202;28;20780;-62
2022/09/23 12:08:28;;;;;;;27.00;12.02;;;16.80;99.90;;;;;;5027414;28;20036;-62
2022/09/23 12:11:15;;;;;;;25.23;12.60;;;16.80;99.90;;;;;;5027558;28;20052;-62
2022/09/23 12:13:52;;;;;;;25.17;11.10;;;16.80;99.90;;;;;;5027310;28;20033;-62
2022/09/23 12:16:34;;;;;;;24.23;11.18;;;16.70;99.90;;;;;;5027672;28;20552;-62
2022/09/23 12:19:22;;;;;;;29.23;12.07;;;16.70;99.90;;;;;;5028213;28;20112;-61
2022/09/23 12:22:08;;;;;;;29.80;12.32;;;16.70;99.90;;;;;;5026938;28;20030;-64
2022/09/23 12:24:38;;;;;;;30.95;11.63;;;16.70;99.90;;;;;;5025014;28;20053;-63
2022/09/23 12:27:11;;;;;;;29.60;12.65;;;16.60;99.90;;;;;;5025772;28;20038;-62
2022/09/23 12:29:40;;;;;;;28.08;12.48;;;16.60;99.90;;;;;;5027551;28;20402;-62
2022/09/23 12:32:16;;;;;;;26.08;11.18;;;16.60;99.90;;;;;;5028205;28;20033;-63
2022/09/23 12:34:48;;;;;;;29.13;11.95;;;16.60;99.90;;;;;;5031671;28;20026;-63
2022/09/23 12:37:27;;;;;;;25.77;10.05;;;16.50;99.90;;;;;;5032090;28;20053;-62
2022/09/23 12:40:00;;;;;;;23.30;11.25;;;16.50;99.90;;;;;;5032755;28;20029;-66
2022/09/23 12:42:28;;;;;;;27.75;10.40;;;16.50;99.90;;;;;;5032526;28;20028;-64
2022/09/23 12:45:31;;;;;;;24.35;11.70;;;16.50;99.90;;;;;;5028823;28;20099;-65
2022/09/23 12:48:13;;;;;;;27.67;12.15;;;16.50;99.90;;;;;;5021741;28;20577;-64
2022/09/23 12:50:57;;;;;;;26.65;11.32;;;16.50;99.90;;;;;;5026047;28;20081;-63
2022/09/23 12:53:33;;;;;;;28.50;12.52;;;16.40;99.90;;;;;;5026964;28;20052;-63
2022/09/23 12:56:14;;;;;;;24.10;11.23;;;16.40;99.90;;;;;;5025967;28;20033;-64
2022/09/23 12:58:48;;;;;;;23.63;12.57;;;16.40;99.90;;;;;;5031156;28;20104;-63
2022/09/23 13:01:19;;;;;;;30.33;11.88;;;16.30;99.90;;;;;;5035647;28;20122;-63
2022/09/23 13:06:46;;;;;;;30.45;13.13;;;16.30;99.90;;;;;;5041541;28;20071;-63
2022/09/23 13:09:36;;;;;;;26.17;12.48;;;16.30;99.90;;;;;;5026724;28;20037;-63
2022/09/23 13:12:10;;;;;;;32.90;12.00;;;16.30;99.90;;;;;;5031859;28;20040;-63
2022/09/23 13:14:40;;;;;;;27.42;12.10;;;16.20;99.90;;;;;;5030696;28;20025;-62
2022/09/23 13:17:21;;;;;;;27.30;12.23;;;16.30;99.90;;;;;;5033663;28;20029;-62
2022/09/23 13:20:02;;;;;;;31.95;11.50;;;16.30;99.90;;;;;;5021403;28;20017;-63
2022/09/23 13:22:52;;;;;;;34.55;12.20;;;16.20;99.90;;;;;;5030517;28;20363;-62
2022/09/23 13:25:24;;;;;;;28.08;11.70;;;16.20;99.90;;;;;;5022603;28;20498;-63
2022/09/23 13:27:58;;;;;;;23.48;11.75;;;16.20;99.90;;;;;;5031916;28;20103;-63
2022/09/23 13:30:26;;;;;;;29.17;13.02;;;16.20;99.90;;;;;;5038545;28;20025;-63
2022/09/23 13:33:26;;;;;;;28.77;12.02;;;16.20;99.90;;;;;;5028853;28;20059;-62